Time;durP1;ratioP1;P1;durP2;ratioP2;P2;SDS_P1;SDS_P2;PMS_P1;PMS_P2;Temp;Humidity;BMP_temperature;BMP_pressure;BME280_temperature;BME280_humidity;BME280_pressure;Samples;Min_cycle;Max_cycle;Signal;HPM_P1;HPM_P2
2023/06/21 00:02:15;;;;;;;;;;;;;;;17.31;100.00;101159.16;4965757;28;19922;-72
2023/06/21 00:04:40;;;;;;;;;;;;;;;17.27;100.00;101157.78;4968226;28;19921;-73
2023/06/21 00:07:07;;;;;;;;;;;;;;;17.24;100.00;101151.66;4970843;28;19998;-72
2023/06/21 00:09:32;;;;;;;;;;;;;;;17.26;100.00;101150.63;4966202;28;19921;-72
2023/06/21 00:11:57;;;;;;;;;;;;;;;17.20;100.00;101154.84;4952656;28;20491;-72
2023/06/21 00:14:22;;;;;;;;;;;;;;;17.13;100.00;101151.91;4970603;28;19961;-73
2023/06/21 00:16:47;;;;;;;;;;;;;;;17.13;100.00;101162.75;4968205;28;20156;-74
2023/06/21 00:19:13;;;;;;;;;;;;;;;17.13;100.00;101162.75;4965623;28;19932;-73
2023/06/21 00:21:38;;;;;;;;;;;;;;;17.06;100.00;101151.69;4971775;28;19925;-74
2023/06/21 00:24:04;;;;;;;;;;;;;;;17.14;100.00;101166.31;4967919;28;19921;-71
2023/06/21 00:26:29;;;;;;;;;;;;;;;17.13;100.00;101168.19;4969889;28;19918;-72
2023/06/21 00:28:55;;;;;;;;;;;;;;;17.15;100.00;101177.03;4966803;28;21961;-73
2023/06/21 00:31:20;;;;;;;;;;;;;;;17.12;100.00;101166.47;4967225;28;20012;-73
2023/06/21 00:33:45;;;;;;;;;;;;;;;17.10;100.00;101168.47;4965804;28;19926;-72
2023/06/21 00:36:10;;;;;;;;;;;;;;;17.10;100.00;101163.06;4971694;28;19926;-72
2023/06/21 00:38:36;;;;;;;;;;;;;;;17.11;100.00;101172.91;4970990;28;20013;-73
2023/06/21 00:41:07;;;;;;;;;;;;;;;17.07;100.00;101171.50;4971794;28;19975;-71
2023/06/21 00:43:33;;;;;;;;;;;;;;;17.14;100.00;101171.72;4952114;28;19928;-74
2023/06/21 00:45:58;;;;;;;;;;;;;;;17.12;100.00;101171.03;4967565;28;20322;-73
2023/06/21 00:48:27;;;;;;;;;;;;;;;17.21;100.00;101175.53;4969908;28;20321;-74
2023/06/21 00:50:52;;;;;;;;;;;;;;;17.19;100.00;101183.84;4969169;28;19925;-72
2023/06/21 00:53:18;;;;;;;;;;;;;;;17.15;100.00;101187.88;4968807;28;19921;-73
2023/06/21 00:55:43;;;;;;;;;;;;;;;17.09;100.00;101183.06;4965720;28;19926;-72
2023/06/21 00:58:09;;;;;;;;;;;;;;;17.08;100.00;101186.78;4967778;28;19926;-72
2023/06/21 01:00:35;;;;;;;;;;;;;;;17.11;100.00;101186.47;4969448;28;19975;-73
2023/06/21 01:03:00;;;;;;;;;;;;;;;17.06;100.00;101183.34;4967415;28;20008;-71
2023/06/21 01:05:25;;;;;;;;;;;;;;;17.11;100.00;101191.03;4950689;28;19926;-73
2023/06/21 01:08:00;;;;;;;;;;;;;;;17.08;100.00;101192.19;4983880;28;20458;-73
2023/06/21 01:10:28;;;;;;;;;;;;;;;17.04;100.00;101198.94;4968294;28;20374;-74
2023/06/21 01:12:57;;;;;;;;;;;;;;;17.05;100.00;101204.22;4966368;28;19975;-73
2023/06/21 01:15:23;;;;;;;;;;;;;;;17.04;100.00;101204.34;4971278;28;19926;-73
2023/06/21 01:17:51;;;;;;;;;;;;;;;17.03;100.00;101202.66;4969975;28;19929;-73
2023/06/21 01:20:23;;;;;;;;;;;;;;;17.04;100.00;101201.63;4975841;28;19925;-73
2023/06/21 01:22:52;;;;;;;;;;;;;;;16.99;100.00;101204.81;4973766;28;19922;-72
2023/06/21 01:25:17;;;;;;;;;;;;;;;16.99;100.00;101212.97;4967838;28;20868;-72
2023/06/21 01:27:52;;;;;;;;;;;;;;;16.93;100.00;101218.97;4962182;28;19926;-72
2023/06/21 01:30:17;;;;;;;;;;;;;;;16.97;100.00;101211.38;4966089;28;20012;-73
2023/06/21 01:32:43;;;;;;;;;;;;;;;16.96;100.00;101210.56;4967019;28;20452;-73
2023/06/21 01:35:08;;;;;;;;;;;;;;;16.99;100.00;101212.97;4970215;28;21548;-73
2023/06/21 01:37:34;;;;;;;;;;;;;;;17.01;100.00;101204.66;4953570;28;19992;-73
2023/06/21 01:39:59;;;;;;;;;;;;;;;17.01;100.00;101201.94;4968743;28;19925;-73
2023/06/21 01:42:24;;;;;;;;;;;;;;;17.03;100.00;101208.06;4973620;28;19926;-73
2023/06/21 01:44:49;;;;;;;;;;;;;;;16.98;100.00;101218.53;4968322;28;19956;-73
2023/06/21 01:47:15;;;;;;;;;;;;;;;16.95;100.00;101214.25;4966221;28;19925;-73
2023/06/21 01:49:40;;;;;;;;;;;;;;;16.85;100.00;101222.44;4973329;28;19956;-73
2023/06/21 01:52:06;;;;;;;;;;;;;;;16.84;100.00;101226.16;4968891;28;20197;-72
2023/06/21 01:54:33;;;;;;;;;;;;;;;16.80;100.00;101222.03;4973495;28;19922;-73
2023/06/21 01:56:59;;;;;;;;;;;;;;;16.84;100.00;101234.28;4971340;28;19969;-73
2023/06/21 01:59:24;;;;;;;;;;;;;;;16.82;100.00;101227.31;4969842;28;19957;-73
2023/06/21 02:01:50;;;;;;;;;;;;;;;16.84;100.00;101230.69;4970502;28;20016;-73
2023/06/21 02:04:16;;;;;;;;;;;;;;;16.81;100.00;101234.59;4965042;28;19971;-73
2023/06/21 02:06:41;;;;;;;;;;;;;;;16.78;100.00;101235.75;4969984;28;19925;-73
2023/06/21 02:09:06;;;;;;;;;;;;;;;16.69;100.00;101233.94;4960337;28;19960;-73
2023/06/21 02:11:31;;;;;;;;;;;;;;;16.67;100.00;101232.38;4973918;28;20012;-72
2023/06/21 02:13:57;;;;;;;;;;;;;;;16.71;100.00;101233.75;4962401;28;20190;-73
2023/06/21 02:16:26;;;;;;;;;;;;;;;16.67;100.00;101233.22;4949321;28;19961;-72
2023/06/21 02:18:51;;;;;;;;;;;;;;;16.69;100.00;101236.66;4965768;28;20365;-72
2023/06/21 02:21:17;;;;;;;;;;;;;;;16.66;100.00;101238.81;4966059;28;19926;-72
2023/06/21 02:23:42;;;;;;;;;;;;;;;16.66;100.00;101244.22;4970036;28;20249;-73
2023/06/21 02:26:08;;;;;;;;;;;;;;;16.65;100.00;101248.78;4972946;28;20385;-72
2023/06/21 02:28:33;;;;;;;;;;;;;;;16.68;100.00;101256.63;4966196;28;20089;-72
2023/06/21 02:30:58;;;;;;;;;;;;;;;16.68;100.00;101259.34;4972220;28;19922;-73
2023/06/21 02:33:23;;;;;;;;;;;;;;;16.69;100.00;101261.03;4963662;28;19961;-72
2023/06/21 02:35:48;;;;;;;;;;;;;;;16.70;100.00;101268.19;4971752;28;19961;-72
2023/06/21 02:38:14;;;;;;;;;;;;;;;16.72;100.00;101273.44;4971903;28;20021;-72
2023/06/21 02:40:39;;;;;;;;;;;;;;;16.72;100.00;101277.00;4977214;28;19932;-72
2023/06/21 02:43:04;;;;;;;;;;;;;;;16.75;100.00;101282.13;4978132;28;19932;-72
2023/06/21 02:45:30;;;;;;;;;;;;;;;16.74;100.00;101277.72;4977427;28;19928;-72
2023/06/21 02:47:55;;;;;;;;;;;;;;;16.75;100.00;101276.72;4981747;28;20327;-72
2023/06/21 02:50:20;;;;;;;;;;;;;;;16.75;100.00;101278.56;4976801;28;19968;-72
2023/06/21 02:52:45;;;;;;;;;;;;;;;16.74;100.00;101288.56;4974147;28;19974;-72
2023/06/21 02:55:11;;;;;;;;;;;;;;;16.76;100.00;101285.69;4974174;28;20227;-72
2023/06/21 02:57:36;;;;;;;;;;;;;;;16.74;100.00;101288.56;4972695;28;19957;-73
2023/06/21 03:00:04;;;;;;;;;;;;;;;16.63;100.00;101286.91;4973500;28;19940;-73
2023/06/21 03:02:33;;;;;;;;;;;;;;;16.52;100.00;101291.66;4970033;28;20431;-73
2023/06/21 03:04:59;;;;;;;;;;;;;;;16.42;100.00;101297.09;4961663;28;19929;-72
2023/06/21 03:07:24;;;;;;;;;;;;;;;16.33;100.00;101299.69;4951735;28;19926;-72
2023/06/21 03:09:49;;;;;;;;;;;;;;;16.29;100.00;101303.69;4958836;28;20033;-72
2023/06/21 03:12:14;;;;;;;;;;;;;;;16.22;100.00;101304.41;4971023;28;19929;-72
2023/06/21 03:14:41;;;;;;;;;;;;;;;16.17;100.00;101311.13;4974403;28;19928;-72
2023/06/21 03:17:09;;;;;;;;;;;;;;;16.20;100.00;101309.97;4969459;28;19922;-72
2023/06/21 03:19:34;;;;;;;;;;;;;;;16.10;100.00;101292.88;4969949;28;19937;-72
2023/06/21 03:21:59;;;;;;;;;;;;;;;16.24;100.00;101321.38;4973571;28;20259;-71
2023/06/21 03:24:26;;;;;;;;;;;;;;;16.30;100.00;101326.19;4971401;28;20013;-72
2023/06/21 03:26:51;;;;;;;;;;;;;;;16.30;100.00;101326.19;4972680;28;20312;-72
2023/06/21 03:29:17;;;;;;;;;;;;;;;16.28;100.00;101329.06;4972077;28;19921;-72
2023/06/21 03:31:42;;;;;;;;;;;;;;;16.29;100.00;101332.59;4971440;28;19928;-72
2023/06/21 03:34:07;;;;;;;;;;;;;;;16.32;100.00;101337.75;4970104;28;19952;-71
2023/06/21 03:36:32;;;;;;;;;;;;;;;16.35;100.00;101337.47;4962128;28;19921;-73
2023/06/21 03:38:58;;;;;;;;;;;;;;;16.36;100.00;101343.75;4971960;28;19960;-71
2023/06/21 03:41:23;;;;;;;;;;;;;;;16.43;100.00;101344.84;4974397;28;19934;-71
2023/06/21 03:43:48;;;;;;;;;;;;;;;16.44;100.00;101342.00;4972784;28;19985;-71
2023/06/21 03:46:13;;;;;;;;;;;;;;;16.49;100.00;101339.72;4954059;28;20041;-71
2023/06/21 03:48:39;;;;;;;;;;;;;;;16.54;100.00;101343.84;4969700;28;19955;-71
2023/06/21 03:51:04;;;;;;;;;;;;;;;16.53;100.00;101347.56;4973602;28;20360;-71
2023/06/21 03:53:29;;;;;;;;;;;;;;;16.46;100.00;101352.69;4973100;28;19922;-71
2023/06/21 03:55:54;;;;;;;;;;;;;;;16.46;100.00;101344.56;4972086;28;19972;-71
2023/06/21 03:58:20;;;;;;;;;;;;;;;16.46;100.00;101337.31;4967836;28;20364;-71
2023/06/21 04:00:45;;;;;;;;;;;;;;;16.44;100.00;101343.84;4968861;28;20303;-71
2023/06/21 04:03:10;;;;;;;;;;;;;;;16.48;100.00;101339.84;4965407;28;19967;-71
2023/06/21 04:05:35;;;;;;;;;;;;;;;16.47;100.00;101340.84;4971731;28;19944;-71
2023/06/21 04:08:01;;;;;;;;;;;;;;;16.39;100.00;101333.47;4958744;28;19922;-71
2023/06/21 04:10:26;;;;;;;;;;;;;;;16.53;100.00;101353.81;4992101;28;20191;-71
2023/06/21 04:12:51;;;;;;;;;;;;;;;16.62;100.00;101354.81;4980010;28;20053;-71
2023/06/21 04:15:16;;;;;;;;;;;;;;;16.69;100.00;101352.34;4978737;28;20379;-71
2023/06/21 04:17:42;;;;;;;;;;;;;;;16.72;100.00;101354.75;4971127;28;19922;-70
2023/06/21 04:20:13;;;;;;;;;;;;;;;16.79;100.00;101353.19;4967749;28;19926;-71
2023/06/21 04:22:41;;;;;;;;;;;;;;;16.84;100.00;101359.03;4968795;28;20316;-70
2023/06/21 04:25:08;;;;;;;;;;;;;;;16.90;100.00;101361.16;4954432;28;20390;-71
2023/06/21 04:27:33;;;;;;;;;;;;;;;16.99;100.00;101359.44;4968058;28;19922;-71
2023/06/21 04:29:59;;;;;;;;;;;;;;;17.04;100.00;101367.09;4969860;28;19969;-71
2023/06/21 04:32:24;;;;;;;;;;;;;;;17.04;100.00;101370.69;4973074;28;19957;-71
2023/06/21 04:34:49;;;;;;;;;;;;;;;17.13;100.00;101381.63;4966856;28;20750;-71
2023/06/21 04:37:14;;;;;;;;;;;;;;;17.15;100.00;101377.78;4970379;28;20286;-71
2023/06/21 04:39:40;;;;;;;;;;;;;;;17.11;100.00;101373.66;4972251;28;19929;-71
2023/06/21 04:42:05;;;;;;;;;;;;;;;17.07;100.00;101375.81;4968600;28;20423;-71
2023/06/21 04:44:31;;;;;;;;;;;;;;;17.06;100.00;101389.53;4967168;28;20364;-71
2023/06/21 04:46:56;;;;;;;;;;;;;;;17.07;100.00;101399.38;4968884;28;19925;-71
2023/06/21 04:49:25;;;;;;;;;;;;;;;17.08;100.00;101391.06;4969726;28;19926;-71
2023/06/21 04:51:50;;;;;;;;;;;;;;;17.06;100.00;101390.38;4968141;28;19922;-71
2023/06/21 04:54:16;;;;;;;;;;;;;;;17.07;100.00;101402.94;4966646;28;20365;-71
2023/06/21 04:56:42;;;;;;;;;;;;;;;17.07;100.00;101407.50;4966739;28;20350;-71
2023/06/21 04:59:08;;;;;;;;;;;;;;;17.20;100.00;101407.16;4963350;28;19957;-71
2023/06/21 05:01:33;;;;;;;;;;;;;;;17.24;100.00;101409.41;4965548;28;19926;-71
2023/06/21 05:03:59;;;;;;;;;;;;;;;17.32;100.00;101407.81;4961913;28;19926;-71
2023/06/21 05:06:25;;;;;;;;;;;;;;;17.37;100.00;101419.09;4966964;28;19961;-71
2023/06/21 05:08:50;;;;;;;;;;;;;;;17.36;100.00;101412.78;4965201;28;20040;-71
2023/06/21 05:11:15;;;;;;;;;;;;;;;17.48;100.00;101413.44;4966218;28;19922;-71
2023/06/21 05:13:40;;;;;;;;;;;;;;;17.60;100.00;101416.84;4966383;28;20457;-71
2023/06/21 05:16:06;;;;;;;;;;;;;;;17.64;100.00;101431.78;4967332;28;19928;-71
2023/06/21 05:18:31;;;;;;;;;;;;;;;17.64;100.00;101420.94;4967707;28;19926;-71
2023/06/21 05:20:56;;;;;;;;;;;;;;;17.69;100.00;101417.78;4970023;28;19929;-71
2023/06/21 05:23:21;;;;;;;;;;;;;;;17.63;100.00;101416.50;4968677;28;19921;-71
2023/06/21 05:25:47;;;;;;;;;;;;;;;17.71;100.00;101425.75;4965778;28;20367;-71
2023/06/21 05:28:12;;;;;;;;;;;;;;;17.78;100.00;101425.00;4960965;28;19933;-71
2023/06/21 05:30:37;;;;;;;;;;;;;;;17.87;100.00;101428.69;4962943;28;20375;-71
2023/06/21 05:33:02;;;;;;;;;;;;;;;17.93;100.00;101436.19;4966803;28;20385;-71
2023/06/21 05:35:27;;;;;;;;;;;;;;;17.92;100.00;101441.78;4970122;28;19972;-71
2023/06/21 05:37:53;;;;;;;;;;;;;;;17.95;100.00;101449.63;4968413;28;20025;-71
2023/06/21 05:40:19;;;;;;;;;;;;;;;18.07;100.00;101445.72;4973748;28;20111;-71
2023/06/21 05:42:45;;;;;;;;;;;;;;;18.05;100.00;101447.72;4966098;28;20364;-71
2023/06/21 05:45:10;;;;;;;;;;;;;;;18.14;100.00;101443.25;4970100;28;20121;-71
2023/06/21 05:47:36;;;;;;;;;;;;;;;18.29;100.00;101449.84;4969353;28;19980;-71
2023/06/21 05:50:01;;;;;;;;;;;;;;;18.22;100.00;101451.47;4968267;28;20008;-71
2023/06/21 05:52:26;;;;;;;;;;;;;;;18.39;100.00;101438.88;4970529;28;20408;-72
2023/06/21 05:54:51;;;;;;;;;;;;;;;18.39;100.00;101457.91;4970075;28;19922;-71
2023/06/21 05:57:17;;;;;;;;;;;;;;;18.35;100.00;101471.97;4968147;28;19969;-72
2023/06/21 05:59:43;;;;;;;;;;;;;;;18.48;100.00;101466.16;4962958;28;20059;-72
2023/06/21 06:02:08;;;;;;;;;;;;;;;18.56;100.00;101474.34;4964253;28;20399;-71
2023/06/21 06:04:33;;;;;;;;;;;;;;;18.74;100.00;101487.94;4965326;28;19925;-72
2023/06/21 06:06:58;;;;;;;;;;;;;;;18.78;100.00;101496.66;4969948;28;20361;-72
2023/06/21 06:09:24;;;;;;;;;;;;;;;18.87;100.00;101501.13;4960755;28;20575;-71
2023/06/21 06:11:50;;;;;;;;;;;;;;;18.98;100.00;101508.22;4972205;28;20440;-72
2023/06/21 06:14:15;;;;;;;;;;;;;;;19.07;100.00;101507.25;4965707;28;19921;-72
2023/06/21 06:16:41;;;;;;;;;;;;;;;19.20;100.00;101515.00;4972234;28;19922;-72
2023/06/21 06:19:06;;;;;;;;;;;;;;;19.29;100.00;101519.50;4967030;28;19922;-71
2023/06/21 06:21:31;;;;;;;;;;;;;;;19.53;100.00;101525.22;4968016;28;19925;-72
2023/06/21 06:23:56;;;;;;;;;;;;;;;19.55;100.00;101520.47;4972851;28;19928;-71
2023/06/21 06:26:23;;;;;;;;;;;;;;;19.61;100.00;101523.41;4974930;28;20432;-72
2023/06/21 06:28:49;;;;;;;;;;;;;;;19.35;100.00;101523.44;4972319;28;19921;-71
2023/06/21 06:31:14;;;;;;;;;;;;;;;19.36;100.00;101519.69;4971124;28;19932;-71
2023/06/21 06:33:39;;;;;;;;;;;;;;;19.41;100.00;101528.25;4966820;28;20316;-71
2023/06/21 06:36:05;;;;;;;;;;;;;;;19.44;100.00;101530.66;4969919;28;20333;-71
2023/06/21 06:38:30;;;;;;;;;;;;;;;19.63;100.00;101539.59;4968282;28;19953;-72
2023/06/21 06:40:55;;;;;;;;;;;;;;;19.64;100.00;101531.25;4973476;28;20387;-71
2023/06/21 06:43:21;;;;;;;;;;;;;;;19.91;100.00;101548.41;4960968;28;20332;-71
2023/06/21 06:45:46;;;;;;;;;;;;;;;19.74;100.00;101547.47;4963955;28;19922;-72
2023/06/21 06:48:11;;;;;;;;;;;;;;;19.89;100.00;101545.00;4961925;28;19932;-71
2023/06/21 06:50:38;;;;;;;;;;;;;;;20.00;100.00;101540.28;4971652;28;19925;-71
2023/06/21 06:53:04;;;;;;;;;;;;;;;20.08;100.00;101546.63;4964731;28;19922;-70
2023/06/21 06:55:29;;;;;;;;;;;;;;;19.98;100.00;101555.94;4971486;28;19917;-71
2023/06/21 06:57:57;;;;;;;;;;;;;;;19.95;100.00;101559.00;4972685;28;19921;-74
2023/06/21 07:00:23;;;;;;;;;;;;;;;19.98;100.00;101562.28;4970699;28;20416;-71
2023/06/21 07:02:48;;;;;;;;;;;;;;;20.03;100.00;101557.16;4967579;28;19937;-73
2023/06/21 07:05:13;;;;;;;;;;;;;;;20.04;100.00;101561.59;4972527;28;19922;-72
2023/06/21 07:07:39;;;;;;;;;;;;;;;20.05;100.00;101568.75;4969273;28;19964;-71
2023/06/21 07:10:04;;;;;;;;;;;;;;;20.19;100.00;101574.59;4974692;28;19979;-71
2023/06/21 07:12:29;;;;;;;;;;;;;;;20.35;100.00;101573.81;4965590;28;20040;-72
2023/06/21 07:14:54;;;;;;;;;;;;;;;20.41;100.00;101580.44;4968900;28;19986;-71
2023/06/21 07:17:23;;;;;;;;;;;;;;;20.55;100.00;101585.25;4967093;28;20036;-71
2023/06/21 07:19:48;;;;;;;;;;;;;;;20.55;100.00;101566.16;4970391;28;20391;-73
2023/06/21 07:22:14;;;;;;;;;;;;;;;20.56;100.00;101565.13;4970270;28;19961;-73
2023/06/21 07:24:39;;;;;;;;;;;;;;;20.67;100.00;101566.69;4970585;28;20008;-72
2023/06/21 07:27:04;;;;;;;;;;;;;;;20.82;100.00;101572.34;4972105;28;19932;-70
2023/06/21 07:29:29;;;;;;;;;;;;;;;20.93;100.00;101574.75;4973851;28;19921;-71
2023/06/21 07:31:54;;;;;;;;;;;;;;;20.75;100.00;101565.84;4972638;28;20275;-71
2023/06/21 07:34:20;;;;;;;;;;;;;;;20.83;100.00;101583.13;4968459;28;19922;-71
2023/06/21 07:36:45;;;;;;;;;;;;;;;20.78;100.00;101577.31;4967727;28;19929;-71
2023/06/21 07:39:10;;;;;;;;;;;;;;;20.81;100.00;101566.06;4970491;28;20407;-71
2023/06/21 07:41:35;;;;;;;;;;;;;;;20.83;100.00;101565.88;4977763;28;19961;-71
2023/06/21 07:44:01;;;;;;;;;;;;;;;20.95;100.00;101569.97;4970358;28;19940;-72
2023/06/21 07:46:26;;;;;;;;;;;;;;;21.09;100.00;101568.44;4971006;28;19953;-72
2023/06/21 07:48:51;;;;;;;;;;;;;;;21.15;100.00;101566.91;4975818;28;20036;-71
2023/06/21 07:51:16;;;;;;;;;;;;;;;21.21;100.00;101570.81;4973557;28;19922;-72
2023/06/21 07:53:41;;;;;;;;;;;;;;;21.37;100.00;101568.06;4968801;28;19931;-72
2023/06/21 07:56:07;;;;;;;;;;;;;;;21.41;100.00;101579.50;4974681;28;20016;-78
2023/06/21 07:58:32;;;;;;;;;;;;;;;21.26;100.00;101557.50;4966270;28;20017;-71
2023/06/21 08:00:57;;;;;;;;;;;;;;;21.48;100.00;101579.63;4952656;28;19984;-71
2023/06/21 08:03:22;;;;;;;;;;;;;;;21.60;100.00;101577.38;4973849;28;20364;-71
2023/06/21 08:05:48;;;;;;;;;;;;;;;21.75;100.00;101580.28;4967315;28;19922;-72
2023/06/21 08:08:15;;;;;;;;;;;;;;;21.68;100.00;101570.09;4962438;28;19929;-71
2023/06/21 08:10:41;;;;;;;;;;;;;;;21.82;100.00;101578.56;4971142;28;20361;-72
2023/06/21 08:13:06;;;;;;;;;;;;;;;21.85;100.00;101572.75;4968087;28;19980;-72
2023/06/21 08:15:31;;;;;;;;;;;;;;;21.95;100.00;101578.88;4969528;28;19964;-72
2023/06/21 08:17:56;;;;;;;;;;;;;;;21.92;100.00;101570.16;4965372;28;19968;-70
2023/06/21 08:20:21;;;;;;;;;;;;;;;21.73;100.00;101577.75;4969605;28;20064;-72
2023/06/21 08:22:47;;;;;;;;;;;;;;;21.77;100.00;101578.22;4975329;28;19948;-71
2023/06/21 08:25:12;;;;;;;;;;;;;;;21.87;100.00;101581.63;4967559;28;20292;-71
2023/06/21 08:27:37;;;;;;;;;;;;;;;22.06;100.00;101576.75;4973264;28;20336;-71
2023/06/21 08:30:03;;;;;;;;;;;;;;;22.11;100.00;101588.00;4973843;28;19953;-72
2023/06/21 08:32:28;;;;;;;;;;;;;;;22.20;100.00;101589.69;4967319;28;20009;-73
2023/06/21 08:34:53;;;;;;;;;;;;;;;22.33;100.00;101595.41;4971575;28;19922;-73
2023/06/21 08:37:22;;;;;;;;;;;;;;;22.51;100.00;101590.75;4974934;28;20342;-72
2023/06/21 08:39:48;;;;;;;;;;;;;;;22.52;100.00;101597.91;4972510;28;19921;-71
2023/06/21 08:42:13;;;;;;;;;;;;;;;22.25;100.00;101587.25;4975099;28;19921;-70
2023/06/21 08:44:38;;;;;;;;;;;;;;;22.41;100.00;101593.69;4975587;28;19924;-74
2023/06/21 08:47:04;;;;;;;;;;;;;;;22.58;100.00;101589.81;4969314;28;19958;-72
2023/06/21 08:49:29;;;;;;;;;;;;;;;22.68;100.00;101592.31;4964600;28;19922;-72
2023/06/21 08:51:54;;;;;;;;;;;;;;;22.83;100.00;101594.28;4970064;28;20411;-73
2023/06/21 08:54:23;;;;;;;;;;;;;;;23.03;100.00;101600.13;4989863;28;19922;-73
2023/06/21 08:56:51;;;;;;;;;;;;;;;22.97;100.00;101593.47;4973033;28;19922;-72
2023/06/21 08:59:21;;;;;;;;;;;;;;;22.99;100.00;101585.94;4961712;28;20392;-72
2023/06/21 09:01:49;;;;;;;;;;;;;;;23.15;100.00;101592.31;4965974;28;19933;-72
2023/06/21 09:04:16;;;;;;;;;;;;;;;23.26;100.00;101591.88;4965846;28;19926;-73
2023/06/21 09:06:41;;;;;;;;;;;;;;;23.31;100.00;101594.94;4968313;28;20470;-71
2023/06/21 09:09:07;;;;;;;;;;;;;;;23.41;100.00;101586.44;4996388;28;19922;-72
2023/06/21 09:11:32;;;;;;;;;;;;;;;23.10;100.00;101597.50;4971934;28;19928;-71
2023/06/21 09:13:57;;;;;;;;;;;;;;;22.83;100.00;101605.25;4963894;28;20818;-72
2023/06/21 09:16:22;;;;;;;;;;;;;;;23.11;100.00;101599.19;4970554;28;20009;-72
2023/06/21 09:18:47;;;;;;;;;;;;;;;23.45;100.00;101603.34;4949650;28;19921;-71
2023/06/21 09:21:13;;;;;;;;;;;;;;;23.84;100.00;101599.50;4990207;28;19932;-72
2023/06/21 09:23:39;;;;;;;;;;;;;;;24.11;100.00;101603.47;4974209;28;19922;-71
2023/06/21 09:26:04;;;;;;;;;;;;;;;24.25;100.00;101609.16;4975948;28;20039;-74
2023/06/21 09:28:29;;;;;;;;;;;;;;;24.21;100.00;101603.22;4948568;28;20463;-72
2023/06/21 09:30:54;;;;;;;;;;;;;;;24.24;100.00;101613.78;4971666;28;19925;-71
2023/06/21 09:33:20;;;;;;;;;;;;;;;24.38;100.00;101612.03;4970876;28;20364;-72
2023/06/21 09:35:45;;;;;;;;;;;;;;;24.47;86.46;101611.94;4969217;28;20305;-76
2023/06/21 09:38:20;;;;;;;;;;;;;;;24.46;86.01;101605.63;4970965;28;20332;-77
2023/06/21 09:40:45;;;;;;;;;;;;;;;24.52;84.53;101612.22;4971469;28;19941;-77
2023/06/21 09:43:10;;;;;;;;;;;;;;;24.58;78.93;101622.41;4952494;28;19922;-74
2023/06/21 09:45:36;;;;;;;;;;;;;;;24.61;83.14;101610.19;4968922;28;19922;-74
2023/06/21 09:48:01;;;;;;;;;;;;;;;24.70;81.42;101618.09;4958129;28;20204;-71
2023/06/21 09:50:26;;;;;;;;;;;;;;;24.80;86.13;101617.81;4969761;28;19957;-72
2023/06/21 09:52:52;;;;;;;;;;;;;;;24.94;80.10;101623.44;4966629;28;20326;-75
2023/06/21 09:55:17;;;;;;;;;;;;;;;25.09;79.70;101624.22;4955082;28;19964;-74
2023/06/21 09:57:43;;;;;;;;;;;;;;;25.20;82.95;101614.59;4971212;28;19971;-73
2023/06/21 10:00:08;;;;;;;;;;;;;;;25.41;82.72;101630.19;4968021;28;19934;-73
2023/06/21 10:02:40;;;;;;;;;;;;;;;25.09;81.13;101631.63;4951093;28;20288;-73
2023/06/21 10:05:09;;;;;;;;;;;;;;;25.33;80.63;101627.59;4986200;28;19926;-73
2023/06/21 10:07:41;;;;;;;;;;;;;;;25.49;73.10;101625.66;4968887;28;20321;-71
2023/06/21 10:10:06;;;;;;;;;;;;;;;25.61;75.62;101624.03;4972011;28;19925;-72
2023/06/21 10:12:33;;;;;;;;;;;;;;;25.29;82.28;101629.91;4969708;28;19968;-72
2023/06/21 10:14:59;;;;;;;;;;;;;;;25.60;72.55;101625.06;4967970;28;19925;-73
2023/06/21 10:17:24;;;;;;;;;;;;;;;25.89;75.78;101634.16;4970264;28;20598;-73
2023/06/21 10:19:49;;;;;;;;;;;;;;;26.12;77.07;101633.00;4968556;28;20634;-72
2023/06/21 10:22:16;;;;;;;;;;;;;;;26.47;72.01;101636.59;4964701;28;20435;-72
2023/06/21 10:24:42;;;;;;;;;;;;;;;26.80;70.26;101638.59;4986732;28;19944;-71
2023/06/21 10:27:08;;;;;;;;;;;;;;;26.93;67.75;101643.25;4970494;28;19921;-72
2023/06/21 10:29:33;;;;;;;;;;;;;;;26.56;69.36;101641.88;4964991;28;20396;-75
2023/06/21 10:31:59;;;;;;;;;;;;;;;26.68;76.60;101640.22;4968070;28;19964;-73
2023/06/21 10:34:24;;;;;;;;;;;;;;;27.01;63.53;101645.00;4987071;28;20500;-69
2023/06/21 10:36:50;;;;;;;;;;;;;;;27.46;67.35;101643.50;4973213;28;19922;-72
2023/06/21 10:39:15;;;;;;;;;;;;;;;27.94;70.27;101647.94;4968511;28;19926;-72
2023/06/21 10:41:41;;;;;;;;;;;;;;;27.87;67.25;101647.94;4965658;28;20008;-71
2023/06/21 10:44:06;;;;;;;;;;;;;;;27.92;63.61;101652.81;4981166;28;20402;-72
2023/06/21 10:46:31;;;;;;;;;;;;;;;28.03;54.71;101663.16;4965098;28;20411;-72
2023/06/21 10:48:57;;;;;;;;;;;;;;;28.14;56.11;101659.78;4971858;28;20543;-72
2023/06/21 10:51:22;;;;;;;;;;;;;;;28.33;52.31;101661.84;4970215;28;19922;-72
2023/06/21 10:53:47;;;;;;;;;;;;;;;28.77;58.55;101664.81;4967175;28;19929;-72
2023/06/21 10:56:16;;;;;;;;;;;;;;;28.65;47.53;101656.34;4969687;28;20360;-74
2023/06/21 10:58:41;;;;;;;;;;;;;;;28.64;54.70;101662.94;4970534;28;19929;-74
2023/06/21 11:01:06;;;;;;;;;;;;;;;29.03;49.60;101659.13;4952681;28;19977;-71
2023/06/21 11:03:32;;;;;;;;;;;;;;;29.23;49.16;101662.81;4972723;28;20320;-72
2023/06/21 11:06:16;;;;;;;;;;;;;;;29.15;50.74;101662.00;4981618;28;19924;-73
2023/06/21 11:08:41;;;;;;;;;;;;;;;29.02;50.53;101631.72;4970461;28;19921;-70
2023/06/21 11:11:07;;;;;;;;;;;;;;;29.69;51.67;101674.56;4976008;28;20177;-73
2023/06/21 11:13:33;;;;;;;;;;;;;;;30.03;51.27;101666.81;4970215;28;19961;-72
2023/06/21 11:16:08;;;;;;;;;;;;;;;30.34;52.53;101663.00;4970923;28;19929;-73
2023/06/21 11:18:33;;;;;;;;;;;;;;;30.49;48.21;101657.06;4969518;28;19932;-73
2023/06/21 11:20:58;;;;;;;;;;;;;;;30.12;49.08;101659.88;4971546;28;20295;-72
2023/06/21 11:23:25;;;;;;;;;;;;;;;30.63;48.95;101663.31;4967896;28;20373;-73
2023/06/21 11:26:03;;;;;;;;;;;;;;;31.05;45.55;101659.69;4968846;28;19968;-72
2023/06/21 11:28:31;;;;;;;;;;;;;;;31.31;45.68;101676.16;4971678;28;19922;-71
2023/06/21 11:31:00;;;;;;;;;;;;;;;31.15;47.59;101675.78;4975098;28;19944;-72
2023/06/21 11:33:29;;;;;;;;;;;;;;;30.70;44.97;101679.00;4973813;28;20404;-73
2023/06/21 11:36:01;;;;;;;;;;;;;;;30.99;48.97;101680.06;4967476;28;19926;-71
2023/06/21 11:38:26;;;;;;;;;;;;;;;30.55;48.27;101666.34;4968605;28;19933;-71
2023/06/21 11:40:51;;;;;;;;;;;;;;;30.61;49.16;101668.22;4973449;28;19925;-71
2023/06/21 11:43:18;;;;;;;;;;;;;;;30.91;47.51;101677.59;4963666;28;20208;-71
2023/06/21 11:45:43;;;;;;;;;;;;;;;31.42;43.50;101676.16;4974069;28;19925;-72
2023/06/21 11:48:10;;;;;;;;;;;;;;;31.16;41.60;101676.63;4966838;28;19965;-75
2023/06/21 11:50:48;;;;;;;;;;;;;;;32.02;43.38;101678.97;4953082;28;19968;-73
2023/06/21 11:53:21;;;;;;;;;;;;;;;32.12;38.50;101678.34;4969609;28;19922;-74
2023/06/21 11:55:52;;;;;;;;;;;;;;;32.61;38.66;101676.06;4973459;28;19937;-72
2023/06/21 11:58:17;;;;;;;;;;;;;;;33.15;37.41;101671.19;4972200;28;19921;-73
2023/06/21 12:00:44;;;;;;;;;;;;;;;32.72;40.37;101677.09;4971819;28;19928;-75
2023/06/21 12:03:10;;;;;;;;;;;;;;;33.47;40.47;101670.63;4972838;28;19921;-71
2023/06/21 12:05:42;;;;;;;;;;;;;;;33.39;39.38;101673.84;4970603;28;19926;-73
2023/06/21 12:08:07;;;;;;;;;;;;;;;33.52;37.12;101676.28;4971425;28;20020;-72
2023/06/21 12:10:32;;;;;;;;;;;;;;;34.13;39.81;101671.88;4969345;28;19960;-73
2023/06/21 12:12:58;;;;;;;;;;;;;;;34.63;36.47;101679.19;4966426;28;19925;-74
2023/06/21 12:15:24;;;;;;;;;;;;;;;34.66;38.82;101678.66;4969641;28;19918;-74
2023/06/21 12:17:51;;;;;;;;;;;;;;;35.01;35.81;101678.47;4970866;28;20292;-74
2023/06/21 12:20:17;;;;;;;;;;;;;;;33.45;38.14;101682.03;4975254;28;19925;-73
2023/06/21 12:22:42;;;;;;;;;;;;;;;32.86;39.41;101679.56;4976772;28;20377;-72